createdAt,value
2018-11-28T00:01:35.375Z,5.47
2018-11-28T00:06:37.433Z,6.10
2018-11-28T00:11:39.543Z,5.03
2018-11-28T00:16:41.591Z,12.03
2018-11-28T00:21:43.662Z,5.47
2018-11-28T00:26:45.735Z,6.17
2018-11-28T00:31:47.780Z,4.07
2018-11-28T00:36:49.858Z,3.73
2018-11-28T00:41:51.947Z,5.00
2018-11-28T00:46:54.165Z,4.40
2018-11-28T00:51:56.198Z,3.30
2018-11-28T00:56:58.231Z,6.43
2018-11-28T01:02:00.328Z,7.73
2018-11-28T01:07:03.110Z,3.97
2018-11-28T01:12:05.235Z,7.07
2018-11-28T01:17:07.279Z,2.63
2018-11-28T01:22:09.360Z,4.57
2018-11-28T01:27:11.483Z,3.80
2018-11-28T01:32:13.540Z,3.60
2018-11-28T01:37:15.601Z,4.57
2018-11-28T01:42:17.655Z,4.17
2018-11-28T01:47:19.687Z,4.23
2018-11-28T01:52:21.752Z,3.90
2018-11-28T01:57:23.818Z,3.87
2018-11-28T02:02:25.887Z,3.13
2018-11-28T02:07:27.935Z,3.43
2018-11-28T02:12:30.015Z,3.00
2018-11-28T02:17:32.072Z,2.70
2018-11-28T02:22:34.117Z,2.20
2018-11-28T02:27:36.209Z,2.40
2018-11-28T02:32:38.271Z,5.03
2018-11-28T02:37:40.434Z,2.17
2018-11-28T02:42:42.682Z,2.10
2018-11-28T02:47:44.899Z,2.20
2018-11-28T02:52:47.045Z,2.20
2018-11-28T02:57:49.506Z,2.07
2018-11-28T03:02:51.910Z,2.00
2018-11-28T03:07:54.015Z,2.43
2018-11-28T03:12:56.144Z,3.20
2018-11-28T03:17:58.260Z,3.60
2018-11-28T03:23:00.346Z,3.20
2018-11-28T03:28:02.484Z,3.70
2018-11-28T03:33:05.046Z,4.60
2018-11-28T03:38:07.214Z,4.37
2018-11-28T03:43:09.336Z,6.60
2018-11-28T03:48:11.475Z,5.30
2018-11-28T03:53:13.609Z,5.20
2018-11-28T03:58:15.735Z,5.37
2018-11-28T04:03:17.866Z,7.13
2018-11-28T04:08:19.992Z,6.10
2018-11-28T04:13:22.132Z,10.13
2018-11-28T04:18:24.239Z,13.63
2018-11-28T04:23:26.358Z,11.20
2018-11-28T04:28:28.498Z,16.23
2018-11-28T04:33:30.613Z,11.87
2018-11-28T04:38:32.729Z,13.53
2018-11-28T04:43:34.844Z,12.57
2018-11-28T04:48:36.973Z,13.10
2018-11-28T04:53:39.089Z,13.07
2018-11-28T04:58:41.190Z,15.63
2018-11-28T05:03:43.286Z,18.67
2018-11-28T05:08:45.407Z,12.53
2018-11-28T05:13:47.563Z,12.60
2018-11-28T05:18:49.662Z,13.93
2018-11-28T05:23:51.779Z,12.27
2018-11-28T05:28:53.914Z,14.90
2018-11-28T05:33:56.082Z,12.13
2018-11-28T05:38:58.184Z,14.20
2018-11-28T05:44:00.273Z,11.73
2018-11-28T05:49:02.394Z,12.27
2018-11-28T05:54:04.556Z,11.00
2018-11-28T05:59:06.678Z,15.20
2018-11-28T06:04:08.817Z,17.13
2018-11-28T06:09:10.932Z,12.67
2018-11-28T06:14:13.066Z,11.83
2018-11-28T06:19:15.157Z,12.70
2018-11-28T06:24:17.273Z,9.60
2018-11-28T06:29:19.481Z,9.33
2018-11-28T06:34:21.610Z,13.50
2018-11-28T06:39:23.697Z,14.80
2018-11-28T06:44:25.793Z,11.93
2018-11-28T06:49:27.897Z,12.57
2018-11-28T06:54:30.025Z,12.07
2018-11-28T06:59:32.161Z,14.93
2018-11-28T07:04:34.288Z,16.70
2018-11-28T07:09:36.403Z,14.43
2018-11-28T07:14:38.579Z,11.80
2018-11-28T07:19:40.732Z,15.30
2018-11-28T07:24:42.838Z,15.50
2018-11-28T07:29:44.989Z,13.93
2018-11-28T07:34:47.113Z,17.07
2018-11-28T07:39:49.211Z,15.97
2018-11-28T07:44:51.354Z,12.63
2018-11-28T07:49:53.448Z,13.73
2018-11-28T07:54:55.561Z,14.13
2018-11-28T07:59:57.669Z,22.67
2018-11-28T08:04:59.805Z,13.80
2018-11-28T08:10:01.954Z,22.20
2018-11-28T08:15:05.106Z,15.70
2018-11-28T08:20:07.244Z,22.20
2018-11-28T08:25:12.686Z,16.27
2018-11-28T08:30:17.306Z,17.40
2018-11-28T08:35:19.512Z,19.30
2018-11-28T08:40:22.741Z,19.10
2018-11-28T08:45:24.885Z,18.40
2018-11-28T08:50:30.404Z,15.00
2018-11-28T08:55:32.536Z,20.13
2018-11-28T09:00:35.137Z,17.17
2018-11-28T09:05:37.279Z,21.30
2018-11-28T09:10:39.433Z,18.70
2018-11-28T09:15:41.568Z,15.90
2018-11-28T09:20:43.730Z,19.40
2018-11-28T09:25:45.891Z,14.37
2018-11-28T09:30:48.086Z,18.80
2018-11-28T09:35:50.217Z,17.37
2018-11-28T09:40:52.344Z,16.13
2018-11-28T09:45:54.481Z,18.23
2018-11-28T09:50:56.661Z,12.53
2018-11-28T09:55:58.769Z,16.43
2018-11-28T10:01:00.931Z,12.97
2018-11-28T10:06:03.156Z,16.03
2018-11-28T10:11:05.322Z,14.77
2018-11-28T10:16:07.463Z,11.80
2018-11-28T10:21:09.605Z,14.00
2018-11-28T10:26:11.736Z,14.23
2018-11-28T10:31:13.935Z,14.33
2018-11-28T10:36:16.136Z,12.30
2018-11-28T10:41:18.308Z,15.27
2018-11-28T10:46:20.446Z,13.50
2018-11-28T10:51:22.616Z,17.50
2018-11-28T10:56:24.742Z,17.50
2018-11-28T11:01:26.948Z,14.97
2018-11-28T11:06:34.695Z,14.83
2018-11-28T11:11:42.708Z,17.53
2018-11-28T11:16:44.848Z,14.70
2018-11-28T11:21:47.042Z,19.27
2018-11-28T11:26:49.155Z,16.80
2018-11-28T11:31:51.317Z,18.20
2018-11-28T11:36:53.431Z,14.90
2018-11-28T11:41:55.553Z,14.90
2018-11-28T11:46:57.690Z,18.20
2018-11-28T11:51:59.822Z,25.33
2018-11-28T11:57:01.957Z,17.00
2018-11-28T12:02:04.464Z,20.60
2018-11-28T12:07:06.604Z,23.97
2018-11-28T12:12:08.738Z,26.83
2018-11-28T12:17:10.898Z,31.00
2018-11-28T12:22:13.054Z,29.33
2018-11-28T12:27:15.209Z,33.33
2018-11-28T12:32:17.582Z,36.77
2018-11-28T12:37:19.691Z,39.30
2018-11-28T12:42:21.824Z,38.17
2018-11-28T12:47:23.971Z,41.60
2018-11-28T12:52:26.120Z,42.83
2018-11-28T12:57:28.246Z,41.70
2018-11-28T13:02:30.377Z,42.60
2018-11-28T13:07:32.551Z,47.17
2018-11-28T13:12:34.669Z,44.70
2018-11-28T13:17:36.840Z,47.00
2018-11-28T13:22:39.020Z,49.00
2018-11-28T13:27:41.529Z,48.73
2018-11-28T13:32:44.216Z,44.93
2018-11-28T13:37:47.280Z,49.90
2018-11-28T13:42:49.462Z,49.63
2018-11-28T13:47:52.738Z,55.37
2018-11-28T13:52:55.515Z,50.43
2018-11-28T13:57:57.674Z,51.43
2018-11-28T14:02:59.847Z,49.90
2018-11-28T14:08:01.988Z,52.10
2018-11-28T14:13:04.526Z,52.43
2018-11-28T14:18:14.052Z,46.03
2018-11-28T14:23:16.230Z,49.13
2018-11-28T14:28:18.462Z,44.70
2018-11-28T14:33:20.722Z,54.93
2018-11-28T14:38:22.923Z,44.27
2018-11-28T14:43:25.090Z,51.50
2018-11-28T14:48:27.256Z,52.97
2018-11-28T14:53:29.508Z,46.13
2018-11-28T14:58:31.733Z,44.17
2018-11-28T15:03:33.894Z,50.97
2018-11-28T15:08:36.313Z,50.97
2018-11-28T15:13:39.127Z,44.10
2018-11-28T15:18:41.366Z,47.87
2018-11-28T15:23:43.512Z,43.80
2018-11-28T15:28:45.700Z,46.60
2018-11-28T15:33:47.895Z,43.67
2018-11-28T15:38:50.030Z,43.10
2018-11-28T15:43:52.212Z,41.47
2018-11-28T15:48:54.336Z,47.27
2018-11-28T15:53:56.517Z,47.63
2018-11-28T15:58:58.696Z,43.83
2018-11-28T16:04:01.662Z,50.07
2018-11-28T16:09:06.874Z,60.57
2018-11-28T16:14:09.152Z,47.27
2018-11-28T16:19:11.294Z,49.10
2018-11-28T16:24:13.473Z,47.17
2018-11-28T16:29:15.669Z,46.03
2018-11-28T16:34:17.854Z,52.13
2018-11-28T16:39:19.999Z,51.47
2018-11-28T16:44:22.207Z,51.77
2018-11-28T16:49:24.364Z,48.60
2018-11-28T16:54:26.634Z,54.00
2018-11-28T16:59:30.881Z,46.60
2018-11-28T17:04:31.095Z,49.73
2018-11-28T17:09:33.279Z,46.43
2018-11-28T17:14:35.467Z,42.27
2018-11-28T17:19:37.655Z,47.13
2018-11-28T17:24:39.781Z,43.53
2018-11-28T17:29:41.937Z,45.57
2018-11-28T17:34:44.167Z,46.97
2018-11-28T17:39:46.377Z,45.23
2018-11-28T17:44:48.596Z,49.50
2018-11-28T17:49:50.781Z,40.93
2018-11-28T17:54:52.925Z,40.43
2018-11-28T17:59:55.094Z,40.17
2018-11-28T18:04:57.265Z,48.60
2018-11-28T18:09:59.433Z,32.93
2018-11-28T18:15:01.710Z,38.97
2018-11-28T18:20:04.015Z,39.00
2018-11-28T18:25:08.304Z,34.30
2018-11-28T18:30:11.466Z,40.63
2018-11-28T18:35:13.756Z,41.63
2018-11-28T18:40:15.983Z,41.23
2018-11-28T18:45:23.438Z,42.03
2018-11-28T18:50:25.623Z,38.70
2018-11-28T18:55:27.899Z,37.77
2018-11-28T19:00:30.123Z,47.53
2018-11-28T19:05:32.336Z,36.77
2018-11-28T19:10:34.790Z,35.33
2018-11-28T19:15:37.166Z,41.93
2018-11-28T19:20:40.662Z,43.23
2018-11-28T19:25:49.862Z,41.17
2018-11-28T19:30:53.917Z,47.73
2018-11-28T19:36:00.417Z,40.63
2018-11-28T19:41:08.283Z,42.80
2018-11-28T19:46:12.864Z,44.03
2018-11-28T19:51:16.159Z,43.27
2018-11-28T19:56:21.834Z,41.47
2018-11-28T20:01:27.579Z,49.53
2018-11-28T20:06:33.827Z,46.80
2018-11-28T20:11:39.896Z,40.60
2018-11-28T20:16:45.993Z,46.97
2018-11-28T20:21:53.037Z,44.43
2018-11-28T20:26:59.055Z,51.90
2018-11-28T20:32:05.220Z,44.63
2018-11-28T20:37:10.994Z,47.03
2018-11-28T20:42:17.026Z,48.37
2018-11-28T20:47:23.555Z,47.27
2018-11-28T20:52:29.977Z,49.00
2018-11-28T20:57:37.142Z,47.47
2018-11-28T21:02:43.994Z,46.40
2018-11-28T21:07:50.885Z,56.07
2018-11-28T21:12:56.775Z,44.40
2018-11-28T21:18:02.360Z,51.93
2018-11-28T21:23:10.136Z,49.47
2018-11-28T21:28:15.127Z,43.20
2018-11-28T21:33:19.377Z,52.13
2018-11-28T21:38:25.138Z,50.10
2018-11-28T21:43:27.813Z,52.97
2018-11-28T21:48:30.233Z,50.33
2018-11-28T21:53:32.443Z,55.40
2018-11-28T21:58:34.667Z,48.73
2018-11-28T22:03:36.818Z,43.83
2018-11-28T22:08:39.002Z,47.10
2018-11-28T22:13:41.201Z,48.53
2018-11-28T22:18:43.365Z,52.97
2018-11-28T22:23:45.507Z,53.63
2018-11-28T22:28:47.667Z,47.53
2018-11-28T22:33:49.818Z,45.67
2018-11-28T22:38:52.241Z,51.37
2018-11-28T22:43:54.380Z,44.57
2018-11-28T22:48:56.585Z,51.70
2018-11-28T22:53:58.782Z,44.67
2018-11-28T22:59:00.955Z,47.33
2018-11-28T23:04:03.133Z,46.37
2018-11-28T23:09:06.979Z,45.47
2018-11-28T23:14:09.134Z,45.10
2018-11-28T23:19:11.296Z,42.83
2018-11-28T23:24:13.446Z,46.63
2018-11-28T23:29:15.575Z,44.40
2018-11-28T23:34:17.732Z,49.30
2018-11-28T23:39:19.849Z,44.73
2018-11-28T23:44:22.015Z,47.13
2018-11-28T23:49:24.165Z,48.20
2018-11-28T23:54:26.293Z,46.27
2018-11-28T23:59:28.458Z,45.33
